sensor_id;sensor_type;location;lat;lon;timestamp;pressure;altitude;pressure_sealevel;temperature
14666;BMP280;7420;53.574;10.040;2022-08-02T00:00:25;101943.53;;;13.82
14666;BMP280;7420;53.574;10.040;2022-08-02T00:02:50;101934.28;;;13.78
14666;BMP280;7420;53.574;10.040;2022-08-02T00:05:15;101939.84;;;13.83
14666;BMP280;7420;53.574;10.040;2022-08-02T00:07:41;101939.63;;;13.85
14666;BMP280;7420;53.574;10.040;2022-08-02T00:10:08;101944.09;;;13.72
14666;BMP280;7420;53.574;10.040;2022-08-02T00:12:34;101940.00;;;13.76
14666;BMP280;7420;53.574;10.040;2022-08-02T00:14:59;101940.44;;;13.79
14666;BMP280;7420;53.574;10.040;2022-08-02T00:17:24;101941.66;;;13.77
14666;BMP280;7420;53.574;10.040;2022-08-02T00:19:50;101938.38;;;13.75
14666;BMP280;7420;53.574;10.040;2022-08-02T00:22:15;101934.84;;;13.74
14666;BMP280;7420;53.574;10.040;2022-08-02T00:24:41;101936.50;;;13.69
14666;BMP280;7420;53.574;10.040;2022-08-02T00:27:06;101931.16;;;13.69
14666;BMP280;7420;53.574;10.040;2022-08-02T00:29:34;101927.28;;;13.71
14666;BMP280;7420;53.574;10.040;2022-08-02T00:32:00;101926.81;;;13.68
14666;BMP280;7420;53.574;10.040;2022-08-02T00:34:25;101926.19;;;13.66
14666;BMP280;7420;53.574;10.040;2022-08-02T00:36:51;101929.03;;;13.51
14666;BMP280;7420;53.574;10.040;2022-08-02T00:39:16;101919.97;;;13.52
14666;BMP280;7420;53.574;10.040;2022-08-02T00:41:49;101913.63;;;13.60
14666;BMP280;7420;53.574;10.040;2022-08-02T00:44:16;101924.69;;;13.44
14666;BMP280;7420;53.574;10.040;2022-08-02T00:46:42;101929.41;;;13.42
14666;BMP280;7420;53.574;10.040;2022-08-02T00:49:07;101933.88;;;13.35
14666;BMP280;7420;53.574;10.040;2022-08-02T00:51:33;101932.84;;;13.36
14666;BMP280;7420;53.574;10.040;2022-08-02T00:53:58;101939.28;;;13.48
14666;BMP280;7420;53.574;10.040;2022-08-02T00:56:23;101949.56;;;13.51
14666;BMP280;7420;53.574;10.040;2022-08-02T00:58:49;101948.75;;;13.57
14666;BMP280;7420;53.574;10.040;2022-08-02T01:01:14;101939.72;;;13.58
14666;BMP280;7420;53.574;10.040;2022-08-02T01:03:40;101947.13;;;13.56
14666;BMP280;7420;53.574;10.040;2022-08-02T01:06:05;101945.47;;;13.55
14666;BMP280;7420;53.574;10.040;2022-08-02T01:08:30;101950.59;;;13.50
14666;BMP280;7420;53.574;10.040;2022-08-02T01:10:56;101957.16;;;13.47
14666;BMP280;7420;53.574;10.040;2022-08-02T01:13:21;101960.41;;;13.43
14666;BMP280;7420;53.574;10.040;2022-08-02T01:18:39;101958.94;;;13.34
14666;BMP280;7420;53.574;10.040;2022-08-02T01:21:22;101959.97;;;13.39
14666;BMP280;7420;53.574;10.040;2022-08-02T01:26:42;101965.38;;;13.12
14666;BMP280;7420;53.574;10.040;2022-08-02T01:29:24;101964.56;;;13.18
14666;BMP280;7420;53.574;10.040;2022-08-02T01:32:08;101963.31;;;13.14
14666;BMP280;7420;53.574;10.040;2022-08-02T01:34:39;101954.50;;;13.20
14666;BMP280;7420;53.574;10.040;2022-08-02T01:39:39;101955.72;;;13.11
14666;BMP280;7420;53.574;10.040;2022-08-02T01:42:06;101952.81;;;13.06
14666;BMP280;7420;53.574;10.040;2022-08-02T01:44:35;101965.59;;;13.17
14666;BMP280;7420;53.574;10.040;2022-08-02T01:47:05;101954.63;;;13.05
14666;BMP280;7420;53.574;10.040;2022-08-02T01:49:32;101961.69;;;13.13
14666;BMP280;7420;53.574;10.040;2022-08-02T01:52:00;101960.03;;;13.12
14666;BMP280;7420;53.574;10.040;2022-08-02T01:54:48;101955.84;;;13.03
14666;BMP280;7420;53.574;10.040;2022-08-02T01:57:15;101953.38;;;13.01
14666;BMP280;7420;53.574;10.040;2022-08-02T01:59:43;101953.56;;;13.00
14666;BMP280;7420;53.574;10.040;2022-08-02T02:02:11;101966.72;;;13.01
14666;BMP280;7420;53.574;10.040;2022-08-02T02:04:39;101964.53;;;13.11
14666;BMP280;7420;53.574;10.040;2022-08-02T02:07:05;101962.47;;;13.07
14666;BMP280;7420;53.574;10.040;2022-08-02T02:09:35;101961.69;;;13.13
14666;BMP280;7420;53.574;10.040;2022-08-02T02:12:02;101962.69;;;13.12
14666;BMP280;7420;53.574;10.040;2022-08-02T02:14:28;101973.16;;;13.13
14666;BMP280;7420;53.574;10.040;2022-08-02T02:16:56;101973.31;;;13.05
14666;BMP280;7420;53.574;10.040;2022-08-02T02:19:23;101970.47;;;13.07
14666;BMP280;7420;53.574;10.040;2022-08-02T02:21:50;101971.53;;;13.12
14666;BMP280;7420;53.574;10.040;2022-08-02T02:24:15;101969.00;;;13.04
14666;BMP280;7420;53.574;10.040;2022-08-02T02:26:41;101969.84;;;13.05
14666;BMP280;7420;53.574;10.040;2022-08-02T02:29:08;101960.34;;;13.02
14666;BMP280;7420;53.574;10.040;2022-08-02T02:31:37;101953.25;;;12.88
14666;BMP280;7420;53.574;10.040;2022-08-02T02:34:07;101948.25;;;12.79
14666;BMP280;7420;53.574;10.040;2022-08-02T02:36:36;101949.31;;;12.84
14666;BMP280;7420;53.574;10.040;2022-08-02T02:39:05;101947.09;;;12.88
14666;BMP280;7420;53.574;10.040;2022-08-02T02:41:31;101947.94;;;12.88
14666;BMP280;7420;53.574;10.040;2022-08-02T02:44:00;101946.28;;;12.87
14666;BMP280;7420;53.574;10.040;2022-08-02T02:46:26;101938.97;;;12.96
14666;BMP280;7420;53.574;10.040;2022-08-02T02:48:54;101934.38;;;12.90
14666;BMP280;7420;53.574;10.040;2022-08-02T02:51:20;101941.06;;;12.79
14666;BMP280;7420;53.574;10.040;2022-08-02T02:53:46;101938.97;;;12.75
14666;BMP280;7420;53.574;10.040;2022-08-02T02:56:15;101932.53;;;12.63
14666;BMP280;7420;53.574;10.040;2022-08-02T02:58:42;101932.63;;;12.76
14666;BMP280;7420;53.574;10.040;2022-08-02T03:01:08;101928.63;;;12.86
14666;BMP280;7420;53.574;10.040;2022-08-02T03:03:52;101930.03;;;12.61
14666;BMP280;7420;53.574;10.040;2022-08-02T03:06:18;101930.00;;;12.55
14666;BMP280;7420;53.574;10.040;2022-08-02T03:08:43;101934.94;;;12.58
14666;BMP280;7420;53.574;10.040;2022-08-02T03:11:10;101933.16;;;12.65
14666;BMP280;7420;53.574;10.040;2022-08-02T03:13:37;101931.25;;;12.59
14666;BMP280;7420;53.574;10.040;2022-08-02T03:16:03;101926.91;;;12.52
14666;BMP280;7420;53.574;10.040;2022-08-02T03:18:36;101931.78;;;12.48
14666;BMP280;7420;53.574;10.040;2022-08-02T03:21:07;101931.84;;;12.55
14666;BMP280;7420;53.574;10.040;2022-08-02T03:23:34;101931.44;;;12.57
14666;BMP280;7420;53.574;10.040;2022-08-02T03:25:59;101938.25;;;12.60
14666;BMP280;7420;53.574;10.040;2022-08-02T03:28:25;101931.25;;;12.59
14666;BMP280;7420;53.574;10.040;2022-08-02T03:30:50;101922.00;;;12.55
14666;BMP280;7420;53.574;10.040;2022-08-02T03:33:17;101934.94;;;12.37
14666;BMP280;7420;53.574;10.040;2022-08-02T03:35:44;101931.78;;;12.48
14666;BMP280;7420;53.574;10.040;2022-08-02T03:38:11;101938.38;;;12.52
14666;BMP280;7420;53.574;10.040;2022-08-02T03:40:38;101938.13;;;12.47
14666;BMP280;7420;53.574;10.040;2022-08-02T03:43:06;101927.84;;;12.44
14666;BMP280;7420;53.574;10.040;2022-08-02T03:45:33;101932.91;;;12.60
14666;BMP280;7420;53.574;10.040;2022-08-02T03:47:58;101937.47;;;12.66
14666;BMP280;7420;53.574;10.040;2022-08-02T03:50:25;101928.50;;;12.73
14666;BMP280;7420;53.574;10.040;2022-08-02T03:52:51;101926.31;;;12.56
14666;BMP280;7420;53.574;10.040;2022-08-02T03:55:16;101924.28;;;12.58
14666;BMP280;7420;53.574;10.040;2022-08-02T03:57:42;101916.94;;;12.66
14666;BMP280;7420;53.574;10.040;2022-08-02T04:00:11;101912.69;;;12.72
14666;BMP280;7420;53.574;10.040;2022-08-02T04:02:38;101911.91;;;12.78
14666;BMP280;7420;53.574;10.040;2022-08-02T04:05:03;101920.22;;;12.89
14666;BMP280;7420;53.574;10.040;2022-08-02T04:07:29;101921.69;;;12.92
14666;BMP280;7420;53.574;10.040;2022-08-02T04:09:54;101926.50;;;12.82
14666;BMP280;7420;53.574;10.040;2022-08-02T04:12:20;101933.94;;;12.86
14666;BMP280;7420;53.574;10.040;2022-08-02T04:14:45;101936.16;;;12.83
14666;BMP280;7420;53.574;10.040;2022-08-02T04:17:11;101940.72;;;12.89
14666;BMP280;7420;53.574;10.040;2022-08-02T04:19:54;101938.44;;;12.86
14666;BMP280;7420;53.574;10.040;2022-08-02T04:22:26;101936.41;;;12.88
14666;BMP280;7420;53.574;10.040;2022-08-02T04:24:57;101937.72;;;12.92
14666;BMP280;7420;53.574;10.040;2022-08-02T04:27:23;101941.72;;;12.81
14666;BMP280;7420;53.574;10.040;2022-08-02T04:29:49;101944.16;;;12.83
14666;BMP280;7420;53.574;10.040;2022-08-02T04:32:15;101949.75;;;12.88
14666;BMP280;7420;53.574;10.040;2022-08-02T04:34:42;101953.06;;;12.90
14666;BMP280;7420;53.574;10.040;2022-08-02T04:37:11;101950.72;;;12.80
14666;BMP280;7420;53.574;10.040;2022-08-02T04:39:37;101950.53;;;12.82
14666;BMP280;7420;53.574;10.040;2022-08-02T04:42:02;101956.88;;;12.81
14666;BMP280;7420;53.574;10.040;2022-08-02T04:44:28;101964.50;;;12.84
14666;BMP280;7420;53.574;10.040;2022-08-02T04:46:53;101957.41;;;12.91
14666;BMP280;7420;53.574;10.040;2022-08-02T04:49:20;101948.47;;;12.84
14666;BMP280;7420;53.574;10.040;2022-08-02T04:51:45;101945.81;;;12.84
14666;BMP280;7420;53.574;10.040;2022-08-02T04:54:11;101949.22;;;12.92
14666;BMP280;7420;53.574;10.040;2022-08-02T04:56:37;101948.88;;;13.02
14666;BMP280;7420;53.574;10.040;2022-08-02T04:59:04;101955.47;;;13.06
14666;BMP280;7420;53.574;10.040;2022-08-02T05:01:29;101954.63;;;13.05
14666;BMP280;7420;53.574;10.040;2022-08-02T05:03:54;101956.34;;;13.13
14666;BMP280;7420;53.574;10.040;2022-08-02T05:06:20;101956.34;;;13.13
14666;BMP280;7420;53.574;10.040;2022-08-02T05:08:46;101952.47;;;13.22
14666;BMP280;7420;53.574;10.040;2022-08-02T05:11:12;101952.69;;;13.20
14666;BMP280;7420;53.574;10.040;2022-08-02T05:13:39;101950.59;;;13.50
14666;BMP280;7420;53.574;10.040;2022-08-02T05:16:05;101944.56;;;13.41
14666;BMP280;7420;53.574;10.040;2022-08-02T05:18:30;101954.94;;;13.51
14666;BMP280;7420;53.574;10.040;2022-08-02T05:20:56;101956.88;;;13.36
14666;BMP280;7420;53.574;10.040;2022-08-02T05:23:21;101958.06;;;13.27
14666;BMP280;7420;53.574;10.040;2022-08-02T05:25:47;101953.34;;;13.29
14666;BMP280;7420;53.574;10.040;2022-08-02T05:28:12;101946.28;;;13.49
14666;BMP280;7420;53.574;10.040;2022-08-02T05:30:38;101946.59;;;13.33
14666;BMP280;7420;53.574;10.040;2022-08-02T05:33:04;101951.34;;;13.37
14666;BMP280;7420;53.574;10.040;2022-08-02T05:35:29;101952.53;;;13.69
14666;BMP280;7420;53.574;10.040;2022-08-02T05:37:55;101950.09;;;13.80
14666;BMP280;7420;53.574;10.040;2022-08-02T05:40:20;101950.13;;;13.86
14666;BMP280;7420;53.574;10.040;2022-08-02T05:42:46;101959.34;;;13.71
14666;BMP280;7420;53.574;10.040;2022-08-02T05:45:11;101952.53;;;13.69
14666;BMP280;7420;53.574;10.040;2022-08-02T05:47:37;101954.56;;;13.67
14666;BMP280;7420;53.574;10.040;2022-08-02T05:50:05;101954.16;;;13.70
14666;BMP280;7420;53.574;10.040;2022-08-02T05:55:06;101955.34;;;14.07
14666;BMP280;7420;53.574;10.040;2022-08-02T06:00:54;101956.91;;;14.68
14666;BMP280;7420;53.574;10.040;2022-08-02T06:06:14;101955.41;;;14.33
14666;BMP280;7420;53.574;10.040;2022-08-02T06:08:47;101947.78;;;14.24
14666;BMP280;7420;53.574;10.040;2022-08-02T06:11:17;101952.72;;;14.27
14666;BMP280;7420;53.574;10.040;2022-08-02T06:13:45;101949.03;;;14.34
14666;BMP280;7420;53.574;10.040;2022-08-02T06:16:11;101964.28;;;14.40
14666;BMP280;7420;53.574;10.040;2022-08-02T06:18:39;101956.47;;;14.39
14666;BMP280;7420;53.574;10.040;2022-08-02T06:21:05;101958.09;;;14.33
14666;BMP280;7420;53.574;10.040;2022-08-02T06:23:33;101947.84;;;14.50
14666;BMP280;7420;53.574;10.040;2022-08-02T06:25:59;101948.88;;;14.55
14666;BMP280;7420;53.574;10.040;2022-08-02T06:28:24;101950.94;;;14.47
14666;BMP280;7420;53.574;10.040;2022-08-02T06:30:51;101950.31;;;14.45
14666;BMP280;7420;53.574;10.040;2022-08-02T06:33:17;101959.56;;;14.49
14666;BMP280;7420;53.574;10.040;2022-08-02T06:35:54;101957.50;;;14.51
14666;BMP280;7420;53.574;10.040;2022-08-02T06:38:23;101951.94;;;14.46
14666;BMP280;7420;53.574;10.040;2022-08-02T06:41:05;101954.41;;;14.73
14666;BMP280;7420;53.574;10.040;2022-08-02T06:43:58;101955.66;;;15.03
14666;BMP280;7420;53.574;10.040;2022-08-02T06:46:24;101952.56;;;14.80
14666;BMP280;7420;53.574;10.040;2022-08-02T06:48:49;101953.19;;;14.82
14666;BMP280;7420;53.574;10.040;2022-08-02T06:51:15;101955.44;;;14.98
14666;BMP280;7420;53.574;10.040;2022-08-02T06:53:41;101946.34;;;15.12
14666;BMP280;7420;53.574;10.040;2022-08-02T06:56:06;101943.66;;;15.18
14666;BMP280;7420;53.574;10.040;2022-08-02T06:58:32;101951.53;;;14.94
14666;BMP280;7420;53.574;10.040;2022-08-02T07:00:57;101937.91;;;15.28
14666;BMP280;7420;53.574;10.040;2022-08-02T07:03:23;101951.28;;;15.34
14666;BMP280;7420;53.574;10.040;2022-08-02T07:05:52;101952.72;;;15.37
14666;BMP280;7420;53.574;10.040;2022-08-02T07:08:19;101940.91;;;15.51
14666;BMP280;7420;53.574;10.040;2022-08-02T07:10:45;101938.31;;;15.38
14666;BMP280;7420;53.574;10.040;2022-08-02T07:13:10;101931.22;;;15.50
14666;BMP280;7420;53.574;10.040;2022-08-02T07:15:37;101930.72;;;15.79
14666;BMP280;7420;53.574;10.040;2022-08-02T07:18:04;101936.50;;;15.76
14666;BMP280;7420;53.574;10.040;2022-08-02T07:20:30;101943.94;;;15.74
14666;BMP280;7420;53.574;10.040;2022-08-02T07:22:56;101930.13;;;15.70
14666;BMP280;7420;53.574;10.040;2022-08-02T07:25:21;101927.19;;;15.85
14666;BMP280;7420;53.574;10.040;2022-08-02T07:27:46;101916.47;;;15.78
14666;BMP280;7420;53.574;10.040;2022-08-02T07:30:12;101925.25;;;15.98
14666;BMP280;7420;53.574;10.040;2022-08-02T07:32:38;101919.63;;;15.69
14666;BMP280;7420;53.574;10.040;2022-08-02T07:35:07;101914.13;;;15.95
14666;BMP280;7420;53.574;10.040;2022-08-02T07:37:33;101924.97;;;16.13
14666;BMP280;7420;53.574;10.040;2022-08-02T07:39:59;101923.81;;;15.96
14666;BMP280;7420;53.574;10.040;2022-08-02T07:42:24;101930.00;;;16.33
14666;BMP280;7420;53.574;10.040;2022-08-02T07:44:50;101923.72;;;16.46
14666;BMP280;7420;53.574;10.040;2022-08-02T07:47:16;101931.53;;;16.16
14666;BMP280;7420;53.574;10.040;2022-08-02T07:49:43;101930.50;;;16.17
14666;BMP280;7420;53.574;10.040;2022-08-02T07:52:08;101928.84;;;16.16
14666;BMP280;7420;53.574;10.040;2022-08-02T07:54:34;101928.84;;;16.16
14666;BMP280;7420;53.574;10.040;2022-08-02T07:56:59;101920.91;;;16.34
14666;BMP280;7420;53.574;10.040;2022-08-02T07:59:25;101915.22;;;16.73
14666;BMP280;7420;53.574;10.040;2022-08-02T08:01:51;101918.59;;;16.87
14666;BMP280;7420;53.574;10.040;2022-08-02T08:04:17;101914.78;;;16.76
14666;BMP280;7420;53.574;10.040;2022-08-02T08:06:43;101906.44;;;16.84
14666;BMP280;7420;53.574;10.040;2022-08-02T08:09:09;101913.41;;;16.67
14666;BMP280;7420;53.574;10.040;2022-08-02T08:11:35;101908.25;;;16.90
14666;BMP280;7420;53.574;10.040;2022-08-02T08:14:00;101907.38;;;17.14
14666;BMP280;7420;53.574;10.040;2022-08-02T08:16:26;101893.06;;;17.02
14666;BMP280;7420;53.574;10.040;2022-08-02T08:18:53;101894.16;;;16.70
14666;BMP280;7420;53.574;10.040;2022-08-02T08:21:19;101900.16;;;17.15
14666;BMP280;7420;53.574;10.040;2022-08-02T08:23:44;101891.66;;;17.35
14666;BMP280;7420;53.574;10.040;2022-08-02T08:26:10;101880.72;;;17.30
14666;BMP280;7420;53.574;10.040;2022-08-02T08:28:35;101877.56;;;17.40
14666;BMP280;7420;53.574;10.040;2022-08-02T08:31:00;101861.00;;;17.43
14666;BMP280;7420;53.574;10.040;2022-08-02T08:33:27;101866.38;;;17.43
14666;BMP280;7420;53.574;10.040;2022-08-02T08:35:53;101858.16;;;17.38
14666;BMP280;7420;53.574;10.040;2022-08-02T08:38:18;101863.50;;;17.56
14666;BMP280;7420;53.574;10.040;2022-08-02T08:40:47;101865.06;;;17.27
14666;BMP280;7420;53.574;10.040;2022-08-02T08:43:13;101859.78;;;17.39
14666;BMP280;7420;53.574;10.040;2022-08-02T08:45:41;101850.66;;;17.58
14666;BMP280;7420;53.574;10.040;2022-08-02T08:48:10;101859.78;;;17.68
14666;BMP280;7420;53.574;10.040;2022-08-02T08:51:06;101837.34;;;17.92
14666;BMP280;7420;53.574;10.040;2022-08-02T08:53:38;101848.72;;;18.06
14666;BMP280;7420;53.574;10.040;2022-08-02T08:56:04;101850.75;;;17.81
14666;BMP280;7420;53.574;10.040;2022-08-02T08:58:30;101848.22;;;17.97
14666;BMP280;7420;53.574;10.040;2022-08-02T09:00:55;101851.84;;;18.03
14666;BMP280;7420;53.574;10.040;2022-08-02T09:03:20;101850.25;;;18.13
14666;BMP280;7420;53.574;10.040;2022-08-02T09:05:46;101852.59;;;18.10
14666;BMP280;7420;53.574;10.040;2022-08-02T09:08:12;101846.16;;;18.11
14666;BMP280;7420;53.574;10.040;2022-08-02T09:10:40;101854.19;;;18.40
14666;BMP280;7420;53.574;10.040;2022-08-02T09:15:52;101844.34;;;18.68
14666;BMP280;7420;53.574;10.040;2022-08-02T09:18:18;101842.81;;;18.84
14666;BMP280;7420;53.574;10.040;2022-08-02T09:20:54;101841.41;;;18.93
14666;BMP280;7420;53.574;10.040;2022-08-02T09:23:22;101838.50;;;18.94
14666;BMP280;7420;53.574;10.040;2022-08-02T09:26:14;101831.78;;;18.97
14666;BMP280;7420;53.574;10.040;2022-08-02T09:28:43;101834.25;;;19.10
14666;BMP280;7420;53.574;10.040;2022-08-02T09:31:14;101829.81;;;19.15
14666;BMP280;7420;53.574;10.040;2022-08-02T09:33:43;101817.50;;;19.19
14666;BMP280;7420;53.574;10.040;2022-08-02T09:36:13;101814.03;;;18.84
14666;BMP280;7420;53.574;10.040;2022-08-02T09:38:41;101822.25;;;19.40
14666;BMP280;7420;53.574;10.040;2022-08-02T09:41:20;101821.56;;;19.10
14666;BMP280;7420;53.574;10.040;2022-08-02T09:43:46;101820.66;;;19.05
14666;BMP280;7420;53.574;10.040;2022-08-02T09:46:14;101814.66;;;19.26
14666;BMP280;7420;53.574;10.040;2022-08-02T09:49:09;101818.81;;;19.45
14666;BMP280;7420;53.574;10.040;2022-08-02T09:54:10;101813.09;;;19.69
14666;BMP280;7420;53.574;10.040;2022-08-02T09:56:48;101821.03;;;19.75
14666;BMP280;7420;53.574;10.040;2022-08-02T09:59:17;101808.28;;;19.87
14666;BMP280;7420;53.574;10.040;2022-08-02T10:01:45;101808.03;;;20.17
14666;BMP280;7420;53.574;10.040;2022-08-02T10:04:12;101811.41;;;19.96
14666;BMP280;7420;53.574;10.040;2022-08-02T10:06:40;101804.28;;;19.90
14666;BMP280;7420;53.574;10.040;2022-08-02T10:09:08;101808.25;;;20.15
14666;BMP280;7420;53.574;10.040;2022-08-02T10:11:34;101813.25;;;20.40
14666;BMP280;7420;53.574;10.040;2022-08-02T10:14:02;101812.94;;;20.36
14666;BMP280;7420;53.574;10.040;2022-08-02T10:16:29;101814.69;;;20.47
14666;BMP280;7420;53.574;10.040;2022-08-02T10:18:56;101809.28;;;20.47
14666;BMP280;7420;53.574;10.040;2022-08-02T10:21:44;101807.25;;;20.54
14666;BMP280;7420;53.574;10.040;2022-08-02T10:24:13;101798.47;;;20.64
14666;BMP280;7420;53.574;10.040;2022-08-02T10:26:41;101800.22;;;20.53
14666;BMP280;7420;53.574;10.040;2022-08-02T10:29:13;101804.06;;;20.57
14666;BMP280;7420;53.574;10.040;2022-08-02T10:31:53;101807.06;;;20.61
14666;BMP280;7420;53.574;10.040;2022-08-02T10:34:23;101797.97;;;20.83
14666;BMP280;7420;53.574;10.040;2022-08-02T10:36:51;101808.16;;;21.19
14666;BMP280;7420;53.574;10.040;2022-08-02T10:39:17;101804.06;;;21.16
14666;BMP280;7420;53.574;10.040;2022-08-02T10:41:48;101793.25;;;21.16
14666;BMP280;7420;53.574;10.040;2022-08-02T10:46:52;101772.63;;;21.10
14666;BMP280;7420;53.574;10.040;2022-08-02T10:49:54;101785.59;;;21.56
14666;BMP280;7420;53.574;10.040;2022-08-02T10:52:26;101777.47;;;21.56
14666;BMP280;7420;53.574;10.040;2022-08-02T10:54:57;101768.19;;;21.47
14666;BMP280;7420;53.574;10.040;2022-08-02T10:57:25;101769.03;;;21.48
14666;BMP280;7420;53.574;10.040;2022-08-02T10:59:55;101760.88;;;21.69
14666;BMP280;7420;53.574;10.040;2022-08-02T11:02:44;101764.31;;;21.91
14666;BMP280;7420;53.574;10.040;2022-08-02T11:05:28;101751.09;;;22.00
14666;BMP280;7420;53.574;10.040;2022-08-02T11:07:53;101747.22;;;22.22
14666;BMP280;7420;53.574;10.040;2022-08-02T11:13:11;101741.50;;;22.50
14666;BMP280;7420;53.574;10.040;2022-08-02T11:18:20;101737.63;;;22.41
14666;BMP280;7420;53.574;10.040;2022-08-02T11:20:46;101737.22;;;22.64
14666;BMP280;7420;53.574;10.040;2022-08-02T11:23:44;101744.28;;;22.70
14666;BMP280;7420;53.574;10.040;2022-08-02T11:28:52;101728.63;;;22.82
14666;BMP280;7420;53.574;10.040;2022-08-02T11:31:18;101729.31;;;23.14
14666;BMP280;7420;53.574;10.040;2022-08-02T11:33:43;101723.53;;;22.95
14666;BMP280;7420;53.574;10.040;2022-08-02T11:36:09;101725.44;;;23.00
14666;BMP280;7420;53.574;10.040;2022-08-02T11:38:34;101719.03;;;23.26
14666;BMP280;7420;53.574;10.040;2022-08-02T11:41:00;101706.44;;;22.95
14666;BMP280;7420;53.574;10.040;2022-08-02T11:43:27;101711.84;;;22.95
14666;BMP280;7420;53.574;10.040;2022-08-02T11:45:53;101723.75;;;22.79
14666;BMP280;7420;53.574;10.040;2022-08-02T11:48:36;101719.63;;;23.47
14666;BMP280;7420;53.574;10.040;2022-08-02T11:53:39;101702.03;;;23.85
14666;BMP280;7420;53.574;10.040;2022-08-02T11:56:05;101720.72;;;23.76
14666;BMP280;7420;53.574;10.040;2022-08-02T11:58:31;101717.50;;;23.79
14666;BMP280;7420;53.574;10.040;2022-08-02T12:00:56;101705.84;;;23.89
14666;BMP280;7420;53.574;10.040;2022-08-02T12:03:22;101698.75;;;23.78
14666;BMP280;7420;53.574;10.040;2022-08-02T12:05:50;101697.94;;;23.82
14666;BMP280;7420;53.574;10.040;2022-08-02T12:08:17;101700.59;;;24.37
14666;BMP280;7420;53.574;10.040;2022-08-02T12:10:49;101687.78;;;24.43
14666;BMP280;7420;53.574;10.040;2022-08-02T12:13:14;101689.75;;;24.17
14666;BMP280;7420;53.574;10.040;2022-08-02T12:15:45;101698.41;;;24.49
14666;BMP280;7420;53.574;10.040;2022-08-02T12:18:15;101668.31;;;24.01
14666;BMP280;7420;53.574;10.040;2022-08-02T12:21:00;101667.00;;;23.93
14666;BMP280;7420;53.574;10.040;2022-08-02T12:23:26;101669.16;;;24.06
14666;BMP280;7420;53.574;10.040;2022-08-02T12:26:05;101683.69;;;24.60
14666;BMP280;7420;53.574;10.040;2022-08-02T12:28:35;101668.56;;;25.41
14666;BMP280;7420;53.574;10.040;2022-08-02T12:31:04;101670.56;;;25.25
14666;BMP280;7420;53.574;10.040;2022-08-02T12:33:53;101669.16;;;24.84
14666;BMP280;7420;53.574;10.040;2022-08-02T12:36:22;101670.69;;;25.49
14666;BMP280;7420;53.574;10.040;2022-08-02T12:38:52;101664.78;;;25.37
14666;BMP280;7420;53.574;10.040;2022-08-02T12:41:18;101659.06;;;25.38
14666;BMP280;7420;53.574;10.040;2022-08-02T12:43:43;101659.03;;;25.71
14666;BMP280;7420;53.574;10.040;2022-08-02T12:46:20;101654.06;;;25.07
14666;BMP280;7420;53.574;10.040;2022-08-02T12:48:46;101655.06;;;25.26
14666;BMP280;7420;53.574;10.040;2022-08-02T12:51:26;101640.44;;;25.17
14666;BMP280;7420;53.574;10.040;2022-08-02T12:53:54;101639.78;;;26.20
14666;BMP280;7420;53.574;10.040;2022-08-02T12:56:36;101636.53;;;26.18
14666;BMP280;7420;53.574;10.040;2022-08-02T12:59:02;101627.59;;;26.12
14666;BMP280;7420;53.574;10.040;2022-08-02T13:01:28;101634.28;;;26.48
14666;BMP280;7420;53.574;10.040;2022-08-02T13:03:54;101629.31;;;26.92
14666;BMP280;7420;53.574;10.040;2022-08-02T13:06:21;101634.47;;;25.81
14666;BMP280;7420;53.574;10.040;2022-08-02T13:08:47;101632.28;;;25.12
14666;BMP280;7420;53.574;10.040;2022-08-02T13:11:13;101644.03;;;25.46
14666;BMP280;7420;53.574;10.040;2022-08-02T13:13:39;101655.13;;;25.16
14666;BMP280;7420;53.574;10.040;2022-08-02T13:16:05;101650.25;;;25.79
14666;BMP280;7420;53.574;10.040;2022-08-02T13:18:30;101647.06;;;26.01
14666;BMP280;7420;53.574;10.040;2022-08-02T13:20:56;101621.03;;;26.37
14666;BMP280;7420;53.574;10.040;2022-08-02T13:23:21;101630.75;;;26.24
14666;BMP280;7420;53.574;10.040;2022-08-02T13:25:49;101638.84;;;26.06
14666;BMP280;7420;53.574;10.040;2022-08-02T13:28:14;101633.63;;;26.09
14666;BMP280;7420;53.574;10.040;2022-08-02T13:30:39;101632.84;;;26.32
14666;BMP280;7420;53.574;10.040;2022-08-02T13:33:05;101632.16;;;26.45
14666;BMP280;7420;53.574;10.040;2022-08-02T13:35:32;101622.28;;;27.60
14666;BMP280;7420;53.574;10.040;2022-08-02T13:37:58;101609.97;;;27.12
14666;BMP280;7420;53.574;10.040;2022-08-02T13:40:23;101622.34;;;26.21
14666;BMP280;7420;53.574;10.040;2022-08-02T13:42:48;101613.31;;;26.67
14666;BMP280;7420;53.574;10.040;2022-08-02T13:45:14;101610.47;;;27.14
14666;BMP280;7420;53.574;10.040;2022-08-02T13:47:43;101624.03;;;26.64
14666;BMP280;7420;53.574;10.040;2022-08-02T13:50:09;101616.84;;;26.68
14666;BMP280;7420;53.574;10.040;2022-08-02T13:52:35;101612.28;;;27.69
14666;BMP280;7420;53.574;10.040;2022-08-02T13:55:01;101604.66;;;27.66
14666;BMP280;7420;53.574;10.040;2022-08-02T13:57:26;101610.94;;;27.21
14666;BMP280;7420;53.574;10.040;2022-08-02T13:59:51;101596.16;;;27.86
14666;BMP280;7420;53.574;10.040;2022-08-02T14:02:17;101594.88;;;27.33
14666;BMP280;7420;53.574;10.040;2022-08-02T14:04:42;101604.75;;;27.29
14666;BMP280;7420;53.574;10.040;2022-08-02T14:07:07;101598.97;;;26.62
14666;BMP280;7420;53.574;10.040;2022-08-02T14:09:33;101591.63;;;27.31
14666;BMP280;7420;53.574;10.040;2022-08-02T14:12:01;101591.63;;;27.31
14666;BMP280;7420;53.574;10.040;2022-08-02T14:14:27;101593.34;;;27.59
14666;BMP280;7420;53.574;10.040;2022-08-02T14:16:52;101583.13;;;27.19
14666;BMP280;7420;53.574;10.040;2022-08-02T14:19:17;101582.50;;;27.86
14666;BMP280;7420;53.574;10.040;2022-08-02T14:21:46;101593.00;;;28.06
14666;BMP280;7420;53.574;10.040;2022-08-02T14:24:11;101585.72;;;27.88
14666;BMP280;7420;53.574;10.040;2022-08-02T14:26:37;101587.25;;;27.94
14666;BMP280;7420;53.574;10.040;2022-08-02T14:29:03;101582.16;;;27.42
14666;BMP280;7420;53.574;10.040;2022-08-02T14:31:28;101569.28;;;27.61
14666;BMP280;7420;53.574;10.040;2022-08-02T14:33:54;101573.22;;;27.55
14666;BMP280;7420;53.574;10.040;2022-08-02T14:36:19;101575.06;;;27.73